createdAt,value
2019-02-07T00:02:19.192Z,47.53
2019-02-07T00:04:49.235Z,45.12
2019-02-07T00:07:19.095Z,43.03
2019-02-07T00:09:49.480Z,42.40
2019-02-07T00:12:19.443Z,47.30
2019-02-07T00:14:49.751Z,45.27
2019-02-07T00:17:19.670Z,49.57
2019-02-07T00:19:49.848Z,44.00
2019-02-07T00:22:20.036Z,45.13
2019-02-07T00:24:50.046Z,52.70
2019-02-07T00:27:20.200Z,48.70
2019-02-07T00:29:51.676Z,58.73
2019-02-07T00:32:21.110Z,50.23
2019-02-07T00:34:50.618Z,54.27
2019-02-07T00:37:20.536Z,54.63
2019-02-07T00:39:50.762Z,55.83
2019-02-07T00:42:20.812Z,57.67
2019-02-07T00:44:52.565Z,49.80
2019-02-07T00:47:22.088Z,52.63
2019-02-07T00:49:51.596Z,49.30
2019-02-07T00:52:21.408Z,52.10
2019-02-07T00:54:51.500Z,54.87
2019-02-07T00:57:21.613Z,51.20
2019-02-07T00:59:51.753Z,48.90
2019-02-07T01:02:22.070Z,55.33
2019-02-07T01:04:52.151Z,53.73
2019-02-07T01:07:22.185Z,48.30
2019-02-07T01:09:52.348Z,50.30
2019-02-07T01:12:22.376Z,55.00
2019-02-07T01:15:01.706Z,50.90
2019-02-07T01:17:23.759Z,48.90
2019-02-07T01:19:53.294Z,48.50
2019-02-07T01:22:23.170Z,44.83
2019-02-07T01:24:53.620Z,48.70
2019-02-07T01:27:23.241Z,44.63
2019-02-07T01:29:54.461Z,44.47
2019-02-07T01:32:23.906Z,42.20
2019-02-07T01:34:53.543Z,41.53
2019-02-07T01:37:23.686Z,46.20
2019-02-07T01:39:53.919Z,45.15
2019-02-07T01:42:24.070Z,45.70
2019-02-07T01:44:54.162Z,44.25
2019-02-07T01:47:24.267Z,40.50
2019-02-07T01:49:54.510Z,40.17
2019-02-07T01:52:24.989Z,40.10
2019-02-07T01:54:54.593Z,42.63
2019-02-07T01:57:24.671Z,42.70
2019-02-07T01:59:54.859Z,43.30
2019-02-07T02:02:24.991Z,39.23
2019-02-07T02:04:55.260Z,40.83
2019-02-07T02:07:25.440Z,39.65
2019-02-07T02:09:55.643Z,40.20
2019-02-07T02:12:25.715Z,38.17
2019-02-07T02:14:58.768Z,41.63
2019-02-07T02:17:28.213Z,42.00
2019-02-07T02:19:57.822Z,47.03
2019-02-07T02:22:27.226Z,38.93
2019-02-07T02:24:56.853Z,41.27
2019-02-07T02:27:26.402Z,42.13
2019-02-07T02:29:56.489Z,40.07
2019-02-07T02:32:26.713Z,40.53
2019-02-07T02:34:56.753Z,40.53
2019-02-07T02:37:26.908Z,40.27
2019-02-07T02:39:57.019Z,41.73
2019-02-07T02:42:27.383Z,38.37
2019-02-07T02:44:57.268Z,41.50
2019-02-07T02:47:27.572Z,39.17
2019-02-07T02:49:57.689Z,45.63
2019-02-07T02:52:27.775Z,40.30
2019-02-07T02:54:57.853Z,42.03
2019-02-07T02:57:27.981Z,40.10
2019-02-07T02:59:58.145Z,40.80
2019-02-07T03:02:44.589Z,40.97
2019-02-07T03:05:16.587Z,43.73
2019-02-07T03:08:06.079Z,40.87
2019-02-07T03:10:37.217Z,40.53
2019-02-07T03:13:08.386Z,47.53
2019-02-07T03:15:49.937Z,40.30
2019-02-07T03:18:21.484Z,43.27
2019-02-07T03:20:59.439Z,41.30
2019-02-07T03:23:49.523Z,44.07
2019-02-07T03:26:23.377Z,39.33
2019-02-07T03:28:57.054Z,46.43
2019-02-07T03:31:28.196Z,41.80
2019-02-07T03:34:16.001Z,40.47
2019-02-07T03:36:47.154Z,41.90
2019-02-07T03:39:34.538Z,40.13
2019-02-07T03:42:23.792Z,45.63
2019-02-07T03:44:57.755Z,39.43
2019-02-07T03:47:31.709Z,42.20
2019-02-07T03:50:06.175Z,42.50
2019-02-07T03:52:55.621Z,38.93
2019-02-07T03:55:26.701Z,41.70
2019-02-07T03:58:09.771Z,40.20
2019-02-07T04:00:46.562Z,39.63
2019-02-07T04:03:33.908Z,42.63
2019-02-07T04:06:08.389Z,41.77
2019-02-07T04:08:55.713Z,39.90
2019-02-07T04:11:43.340Z,42.23
2019-02-07T04:14:23.480Z,42.07
2019-02-07T04:16:55.642Z,41.03
2019-02-07T04:19:35.954Z,41.17
2019-02-07T04:22:13.339Z,41.53
2019-02-07T04:24:47.036Z,39.77
2019-02-07T04:27:18.130Z,38.30
2019-02-07T04:29:54.930Z,40.37
2019-02-07T04:32:35.433Z,40.03
2019-02-07T04:35:16.876Z,40.10
2019-02-07T04:37:50.551Z,39.50
2019-02-07T04:40:21.632Z,36.23
2019-02-07T04:42:53.705Z,37.33
2019-02-07T04:45:27.511Z,36.97
2019-02-07T04:48:01.282Z,42.53
2019-02-07T04:50:44.245Z,40.13
2019-02-07T04:53:31.694Z,38.83
2019-02-07T04:56:02.786Z,33.87
2019-02-07T04:58:43.084Z,33.40
2019-02-07T05:01:16.760Z,34.10
2019-02-07T05:03:47.920Z,34.67
2019-02-07T05:06:21.991Z,38.03
2019-02-07T05:08:55.673Z,35.50
2019-02-07T05:11:27.051Z,34.90
2019-02-07T05:14:14.637Z,35.47
2019-02-07T05:16:48.620Z,35.83
2019-02-07T05:19:19.808Z,33.30
2019-02-07T05:21:57.095Z,36.70
2019-02-07T05:24:37.093Z,34.00
2019-02-07T05:27:11.148Z,33.77
2019-02-07T05:29:44.957Z,33.60
2019-02-07T05:32:21.709Z,34.13
2019-02-07T05:35:09.338Z,33.10
2019-02-07T05:37:49.573Z,31.37
2019-02-07T05:40:35.876Z,31.23
2019-02-07T05:43:09.716Z,34.60
2019-02-07T05:45:47.690Z,34.67
2019-02-07T05:48:37.550Z,32.67
2019-02-07T05:51:23.850Z,29.97
2019-02-07T05:54:11.335Z,33.00
2019-02-07T05:56:54.885Z,31.55
2019-02-07T05:59:28.712Z,29.93
2019-02-07T06:02:05.756Z,31.67
2019-02-07T06:04:52.130Z,30.97
2019-02-07T06:07:39.597Z,32.30
2019-02-07T06:10:24.340Z,29.53
2019-02-07T06:13:07.639Z,34.57
2019-02-07T06:15:57.036Z,31.17
2019-02-07T06:18:44.554Z,27.00
2019-02-07T06:21:28.778Z,26.97
2019-02-07T06:24:02.682Z,28.13
2019-02-07T06:26:48.999Z,29.10
2019-02-07T06:29:21.474Z,30.73
2019-02-07T06:31:52.881Z,30.63
2019-02-07T06:34:29.561Z,27.73
2019-02-07T06:37:18.694Z,29.57
2019-02-07T06:39:52.761Z,29.10
2019-02-07T06:42:40.129Z,33.43
2019-02-07T06:45:22.030Z,28.57
2019-02-07T06:47:55.530Z,30.37
2019-02-07T06:50:29.309Z,30.03
2019-02-07T06:53:03.231Z,29.07
2019-02-07T06:55:34.334Z,28.83
2019-02-07T06:58:22.063Z,29.55
2019-02-07T07:00:53.145Z,29.90
2019-02-07T07:03:39.154Z,29.57
2019-02-07T07:06:22.113Z,26.07
2019-02-07T07:08:56.138Z,27.67
2019-02-07T07:11:27.241Z,24.83
2019-02-07T07:13:58.315Z,26.27
2019-02-07T07:16:35.499Z,26.97
2019-02-07T07:19:24.849Z,26.80
2019-02-07T07:22:04.999Z,25.60
2019-02-07T07:24:51.665Z,24.70
2019-02-07T07:27:35.019Z,24.83
2019-02-07T07:30:24.816Z,25.47
2019-02-07T07:33:13.185Z,23.80
2019-02-07T07:35:50.262Z,25.37
2019-02-07T07:38:27.868Z,22.73
2019-02-07T07:41:01.921Z,22.30
2019-02-07T07:43:38.683Z,23.97
2019-02-07T07:46:12.209Z,22.63
2019-02-07T07:49:00.019Z,25.17
2019-02-07T07:51:46.197Z,23.20
2019-02-07T07:54:29.362Z,25.57
2019-02-07T07:57:02.929Z,21.07
2019-02-07T07:59:50.885Z,22.67
2019-02-07T08:02:40.068Z,22.07
2019-02-07T08:05:29.736Z,21.60
2019-02-07T08:08:17.095Z,21.87
2019-02-07T08:10:48.191Z,21.73
2019-02-07T08:13:20.311Z,22.00
2019-02-07T08:16:00.707Z,22.17
2019-02-07T08:18:32.105Z,20.40
2019-02-07T08:21:03.295Z,20.93
2019-02-07T08:23:43.387Z,22.20
2019-02-07T08:26:23.399Z,18.77
2019-02-07T08:29:03.731Z,20.33
2019-02-07T08:31:35.073Z,22.70
2019-02-07T08:34:09.248Z,20.40
2019-02-07T08:36:55.683Z,20.80
2019-02-07T08:39:26.903Z,19.10
2019-02-07T08:42:13.402Z,20.00
2019-02-07T08:44:50.203Z,19.17
2019-02-07T08:47:21.951Z,19.70
2019-02-07T08:50:11.412Z,19.50
2019-02-07T08:52:51.527Z,19.53
2019-02-07T08:55:25.515Z,17.43
2019-02-07T08:57:57.903Z,17.57
2019-02-07T09:00:43.787Z,21.10
2019-02-07T09:03:15.367Z,19.70
2019-02-07T09:05:55.539Z,18.83
2019-02-07T09:08:38.751Z,19.53
2019-02-07T09:11:15.743Z,20.03
2019-02-07T09:14:03.263Z,19.27
2019-02-07T09:16:49.651Z,23.20
2019-02-07T09:19:37.460Z,18.60
2019-02-07T09:22:24.887Z,17.57
2019-02-07T09:25:02.192Z,20.87
2019-02-07T09:27:51.721Z,24.13
2019-02-07T09:30:23.871Z,21.03
2019-02-07T09:32:55.939Z,20.43
2019-02-07T09:35:27.109Z,22.43
2019-02-07T09:38:01.065Z,21.70
2019-02-07T09:40:48.444Z,23.93
2019-02-07T09:43:19.521Z,20.87
2019-02-07T09:45:56.683Z,21.10
2019-02-07T09:48:27.774Z,21.47
2019-02-07T09:50:58.868Z,21.33
2019-02-07T09:53:45.126Z,24.43
2019-02-07T09:56:28.178Z,22.90
2019-02-07T09:59:05.270Z,21.57
2019-02-07T10:01:36.419Z,22.37
2019-02-07T10:04:23.017Z,23.10
2019-02-07T10:07:03.204Z,24.00
2019-02-07T10:09:50.876Z,23.03
2019-02-07T10:12:22.136Z,23.90
2019-02-07T10:15:14.201Z,20.27
2019-02-07T10:17:59.308Z,20.40
2019-02-07T10:20:30.456Z,22.03
2019-02-07T10:23:18.070Z,20.20
2019-02-07T10:25:54.800Z,20.50
2019-02-07T10:28:32.784Z,19.97
2019-02-07T10:31:06.670Z,18.13
2019-02-07T10:33:40.460Z,20.03
2019-02-07T10:36:13.995Z,21.80
2019-02-07T10:38:54.057Z,19.30
2019-02-07T10:41:39.982Z,18.47
2019-02-07T10:44:16.988Z,18.63
2019-02-07T10:46:56.729Z,19.83
2019-02-07T10:49:33.448Z,19.83
2019-02-07T10:52:21.154Z,18.60
2019-02-07T10:55:07.326Z,17.57
2019-02-07T10:57:44.246Z,17.30
2019-02-07T11:00:37.859Z,17.33
2019-02-07T11:03:21.282Z,17.00
2019-02-07T11:05:54.550Z,17.23
2019-02-07T11:08:30.686Z,18.80
2019-02-07T11:11:02.894Z,18.20
2019-02-07T11:13:34.245Z,17.33
2019-02-07T11:16:08.806Z,17.83
2019-02-07T11:18:57.772Z,17.53
2019-02-07T11:21:38.904Z,17.27
2019-02-07T11:24:26.168Z,17.20
2019-02-07T11:27:13.632Z,22.83
2019-02-07T11:30:01.032Z,16.23
2019-02-07T11:32:33.871Z,17.43
2019-02-07T11:35:08.442Z,17.47
2019-02-07T11:37:55.798Z,16.37
2019-02-07T11:40:32.885Z,16.17
2019-02-07T11:43:03.973Z,18.27
2019-02-07T11:45:52.480Z,17.70
2019-02-07T11:48:23.843Z,17.53
2019-02-07T11:50:57.943Z,15.50
2019-02-07T11:53:29.060Z,16.93
2019-02-07T11:56:01.821Z,17.50
2019-02-07T11:58:32.886Z,17.10
2019-02-07T12:01:19.291Z,17.67
2019-02-07T12:03:50.458Z,16.30
2019-02-07T12:06:21.608Z,16.27
2019-02-07T12:09:08.832Z,17.27
2019-02-07T12:11:39.904Z,16.67
2019-02-07T12:14:26.108Z,16.43
2019-02-07T12:16:58.416Z,16.67
2019-02-07T12:19:47.566Z,16.60
2019-02-07T12:22:18.628Z,15.67
2019-02-07T12:24:52.429Z,16.97
2019-02-07T12:27:26.526Z,17.43
2019-02-07T12:30:00.708Z,15.67
2019-02-07T12:32:31.832Z,16.13
2019-02-07T12:35:09.298Z,15.23
2019-02-07T12:37:49.283Z,15.87
2019-02-07T12:40:37.046Z,14.37
2019-02-07T12:43:24.626Z,15.10
2019-02-07T12:46:12.245Z,14.47
2019-02-07T12:48:59.879Z,12.93
2019-02-07T12:51:33.809Z,13.50
2019-02-07T12:54:07.818Z,13.63
2019-02-07T12:56:45.152Z,12.80
2019-02-07T12:59:22.300Z,14.60
2019-02-07T13:02:10.973Z,12.90
2019-02-07T13:04:42.182Z,13.23
2019-02-07T13:07:19.374Z,12.27
2019-02-07T13:10:06.843Z,11.80
2019-02-07T13:12:40.738Z,12.67
2019-02-07T13:15:27.803Z,10.78
2019-02-07T13:18:04.671Z,13.27
2019-02-07T13:20:42.054Z,9.17
2019-02-07T13:23:29.761Z,11.27
2019-02-07T13:26:03.670Z,11.30
2019-02-07T13:28:34.890Z,10.53
2019-02-07T13:31:22.648Z,8.93
2019-02-07T13:33:57.034Z,10.77
2019-02-07T13:36:44.425Z,13.30
2019-02-07T13:39:18.335Z,12.67
2019-02-07T13:41:49.418Z,12.47
2019-02-07T13:44:26.537Z,11.50
2019-02-07T13:47:06.628Z,10.43
2019-02-07T13:49:51.663Z,12.53
2019-02-07T13:52:22.142Z,11.67
2019-02-07T13:54:55.290Z,9.77
2019-02-07T13:57:26.032Z,11.53
2019-02-07T14:00:12.508Z,9.53
2019-02-07T14:02:59.640Z,13.43
2019-02-07T14:05:38.553Z,9.53
2019-02-07T14:08:09.226Z,9.43
2019-02-07T14:10:40.728Z,15.07
2019-02-07T14:13:28.124Z,12.70
2019-02-07T14:16:15.455Z,8.10
2019-02-07T14:18:52.477Z,10.33
2019-02-07T14:21:26.377Z,11.30
2019-02-07T14:23:57.520Z,15.87
2019-02-07T14:26:31.553Z,8.23
2019-02-07T14:29:02.905Z,11.23
2019-02-07T14:31:34.007Z,13.63
2019-02-07T14:34:13.777Z,10.90
2019-02-07T14:36:50.680Z,8.20
2019-02-07T14:39:38.531Z,10.43
2019-02-07T14:42:26.258Z,7.13
2019-02-07T14:45:03.153Z,11.73
2019-02-07T14:47:32.605Z,10.30
2019-02-07T14:50:02.041Z,13.50
2019-02-07T14:52:31.519Z,10.83
2019-02-07T14:55:00.930Z,13.30
2019-02-07T14:57:30.437Z,10.03
2019-02-07T15:00:03.958Z,9.03
2019-02-07T15:02:33.451Z,10.60
2019-02-07T15:05:05.541Z,12.83
2019-02-07T15:07:35.329Z,12.40
2019-02-07T15:10:07.863Z,14.53
2019-02-07T15:12:37.689Z,13.40
2019-02-07T15:15:10.214Z,12.47
2019-02-07T15:17:40.379Z,13.23
2019-02-07T15:20:12.387Z,10.25
2019-02-07T15:22:42.179Z,13.70
2019-02-07T15:25:13.257Z,12.97
2019-02-07T15:27:42.763Z,14.83
2019-02-07T15:30:15.289Z,16.47
2019-02-07T15:32:44.719Z,10.57
2019-02-07T15:35:24.291Z,11.90
2019-02-07T15:37:53.863Z,12.40
2019-02-07T15:40:26.177Z,13.30
2019-02-07T15:42:55.729Z,12.83
2019-02-07T15:45:25.403Z,14.37
2019-02-07T15:47:54.837Z,15.17
2019-02-07T15:50:37.415Z,10.83
2019-02-07T15:52:59.347Z,12.73
2019-02-07T15:55:28.933Z,12.90
2019-02-07T15:57:58.799Z,16.80
2019-02-07T16:00:46.857Z,13.30
2019-02-07T16:03:24.146Z,12.77
2019-02-07T16:05:53.636Z,14.10
2019-02-07T16:08:23.140Z,13.20
2019-02-07T16:10:52.606Z,13.93
2019-02-07T16:13:22.204Z,13.57
2019-02-07T16:15:52.229Z,14.05
2019-02-07T16:18:21.791Z,14.07
2019-02-07T16:20:51.394Z,13.60
2019-02-07T16:23:20.920Z,15.77
2019-02-07T16:25:50.434Z,15.40
2019-02-07T16:28:20.419Z,12.60
2019-02-07T16:30:50.186Z,12.63
2019-02-07T16:33:19.837Z,10.40
2019-02-07T16:35:50.874Z,14.37
2019-02-07T16:38:20.479Z,13.37
2019-02-07T16:40:50.282Z,13.00
2019-02-07T16:43:22.362Z,13.93
2019-02-07T16:45:51.945Z,17.57
2019-02-07T16:48:21.487Z,11.70
2019-02-07T16:50:59.934Z,13.37
2019-02-07T16:53:22.380Z,16.00
2019-02-07T16:55:51.881Z,14.83
2019-02-07T16:58:21.723Z,14.50
2019-02-07T17:00:51.241Z,14.27
2019-02-07T17:03:23.853Z,11.33
2019-02-07T17:05:53.351Z,12.87
2019-02-07T17:08:23.299Z,9.33
2019-02-07T17:10:54.874Z,12.43
2019-02-07T17:13:26.710Z,10.73
2019-02-07T17:15:56.138Z,8.30
2019-02-07T17:18:25.675Z,16.90
2019-02-07T17:20:55.260Z,14.43
2019-02-07T17:23:24.956Z,11.27
2019-02-07T17:25:55.081Z,11.07
2019-02-07T17:28:24.608Z,12.13
2019-02-07T17:30:54.196Z,16.37
2019-02-07T17:33:23.780Z,15.70
2019-02-07T17:35:53.306Z,8.67
2019-02-07T17:38:22.807Z,13.73
2019-02-07T17:40:52.643Z,11.23
2019-02-07T17:43:22.166Z,11.63
2019-02-07T17:45:52.613Z,12.00
2019-02-07T17:48:22.126Z,10.70
2019-02-07T17:50:52.396Z,14.17
2019-02-07T17:53:21.917Z,10.60
2019-02-07T17:55:51.647Z,14.23
2019-02-07T17:58:21.160Z,12.50
2019-02-07T18:00:57.974Z,14.73
2019-02-07T18:03:27.566Z,13.67
2019-02-07T18:05:57.174Z,14.13
2019-02-07T18:08:26.867Z,13.27
2019-02-07T18:10:57.076Z,11.60
2019-02-07T18:13:26.592Z,14.43
2019-02-07T18:15:57.675Z,10.97
2019-02-07T18:18:27.406Z,15.70
2019-02-07T18:20:56.894Z,7.93
2019-02-07T18:23:27.490Z,11.43
2019-02-07T18:25:57.106Z,10.77
2019-02-07T18:28:26.787Z,12.70
2019-02-07T18:30:56.383Z,9.90
2019-02-07T18:33:25.931Z,10.40
2019-02-07T18:35:55.521Z,9.47
2019-02-07T18:38:26.429Z,9.50
2019-02-07T18:40:56.226Z,13.40
2019-02-07T18:43:25.686Z,9.43
2019-02-07T18:45:55.346Z,7.70
2019-02-07T18:48:24.898Z,8.10
2019-02-07T18:50:55.281Z,7.90
2019-02-07T18:53:25.757Z,6.47
2019-02-07T18:55:56.584Z,10.17
2019-02-07T18:58:29.189Z,8.07
2019-02-07T19:00:58.707Z,6.10
2019-02-07T19:03:29.768Z,5.00
2019-02-07T19:05:59.284Z,5.97
2019-02-07T19:08:30.314Z,5.83
2019-02-07T19:11:00.304Z,10.33
2019-02-07T19:13:29.756Z,5.97
2019-02-07T19:16:00.216Z,8.27
2019-02-07T19:18:31.300Z,4.60
2019-02-07T19:21:00.749Z,6.37
2019-02-07T19:23:31.420Z,7.13
2019-02-07T19:26:00.860Z,4.67
2019-02-07T19:28:30.408Z,7.60
2019-02-07T19:30:59.877Z,7.23
2019-02-07T19:33:31.416Z,6.37
2019-02-07T19:36:01.217Z,5.73
2019-02-07T19:38:32.952Z,7.37
2019-02-07T19:41:04.469Z,4.40
2019-02-07T19:43:34.037Z,4.23
2019-02-07T19:46:03.735Z,5.08
2019-02-07T19:48:35.175Z,5.70
2019-02-07T19:51:04.875Z,6.70
2019-02-07T19:53:35.425Z,5.53
2019-02-07T19:56:08.628Z,7.73
2019-02-07T19:58:38.140Z,8.97
2019-02-07T20:01:07.793Z,6.83
2019-02-07T20:03:37.367Z,7.10
2019-02-07T20:06:21.935Z,5.07
2019-02-07T20:09:07.828Z,5.57
2019-02-07T20:11:54.963Z,6.50
2019-02-07T20:14:40.055Z,4.93
2019-02-07T20:17:19.483Z,8.93
2019-02-07T20:20:02.876Z,6.90
2019-02-07T20:22:47.727Z,8.70
2019-02-07T20:25:36.406Z,4.80
2019-02-07T20:28:23.558Z,5.70
2019-02-07T20:31:09.382Z,4.93
2019-02-07T20:33:47.742Z,3.80
2019-02-07T20:36:21.342Z,4.57
2019-02-07T20:38:53.720Z,6.03
2019-02-07T20:41:25.064Z,5.03
2019-02-07T20:44:00.408Z,5.33
2019-02-07T20:46:46.495Z,5.93
2019-02-07T20:49:28.011Z,5.87
2019-02-07T20:52:01.233Z,5.67
2019-02-07T20:54:32.686Z,7.67
2019-02-07T20:57:02.397Z,5.13
2019-02-07T20:59:34.597Z,6.57
2019-02-07T21:02:05.088Z,9.07
2019-02-07T21:04:35.525Z,4.50
2019-02-07T21:07:05.208Z,8.23
2019-02-07T21:09:34.797Z,6.87
2019-02-07T21:12:04.424Z,6.83
2019-02-07T21:14:33.852Z,7.23
2019-02-07T21:17:03.360Z,5.93
2019-02-07T21:19:32.977Z,9.00
2019-02-07T21:22:02.409Z,7.57
2019-02-07T21:24:32.998Z,7.00
2019-02-07T21:27:03.689Z,4.77
2019-02-07T21:29:33.141Z,6.53
2019-02-07T21:32:05.539Z,8.60
2019-02-07T21:34:35.063Z,7.23
2019-02-07T21:37:07.660Z,7.27
2019-02-07T21:39:39.803Z,5.30
2019-02-07T21:42:09.395Z,7.93
2019-02-07T21:44:38.864Z,7.53
2019-02-07T21:47:08.375Z,6.27
2019-02-07T21:49:39.562Z,7.13
2019-02-07T21:52:09.083Z,6.30
2019-02-07T21:54:38.615Z,8.87
2019-02-07T21:57:08.219Z,8.23
2019-02-07T21:59:37.739Z,5.33
2019-02-07T22:02:07.175Z,8.17
2019-02-07T22:04:36.669Z,6.20
2019-02-07T22:07:06.262Z,8.00
2019-02-07T22:09:35.683Z,8.97
2019-02-07T22:12:05.214Z,10.00
2019-02-07T22:14:35.024Z,10.67
2019-02-07T22:17:05.227Z,10.70
2019-02-07T22:19:35.239Z,6.80
2019-02-07T22:22:05.647Z,7.93
2019-02-07T22:24:35.469Z,9.50
2019-02-07T22:27:06.022Z,10.17
2019-02-07T22:29:35.723Z,5.23
2019-02-07T22:32:06.030Z,7.40
2019-02-07T22:34:36.012Z,13.35
2019-02-07T22:37:06.247Z,7.30
2019-02-07T22:39:36.243Z,6.63
2019-02-07T22:42:06.453Z,8.60
2019-02-07T22:44:36.434Z,9.17
2019-02-07T22:47:06.570Z,8.10
2019-02-07T22:49:36.692Z,8.40
2019-02-07T22:52:06.326Z,7.50
2019-02-07T22:54:35.824Z,9.63
2019-02-07T22:57:05.255Z,6.80
2019-02-07T22:59:34.698Z,6.23
2019-02-07T23:02:06.304Z,7.03
2019-02-07T23:04:35.939Z,10.07
2019-02-07T23:07:05.495Z,6.07
2019-02-07T23:09:35.332Z,9.87
2019-02-07T23:12:05.405Z,5.77
2019-02-07T23:14:34.908Z,5.57
2019-02-07T23:17:04.871Z,5.57
2019-02-07T23:19:34.502Z,7.93
2019-02-07T23:22:04.260Z,6.87
2019-02-07T23:24:34.087Z,7.33
2019-02-07T23:27:03.789Z,6.87
2019-02-07T23:29:33.226Z,7.17
2019-02-07T23:32:03.437Z,4.50
2019-02-07T23:34:32.975Z,8.83
2019-02-07T23:37:02.384Z,7.20
2019-02-07T23:39:32.102Z,6.90
2019-02-07T23:42:03.233Z,7.67
2019-02-07T23:44:32.836Z,6.23
2019-02-07T23:47:02.246Z,8.40
2019-02-07T23:49:31.701Z,8.63
2019-02-07T23:52:01.199Z,4.53
2019-02-07T23:54:31.112Z,7.67
2019-02-07T23:57:00.542Z,12.47
2019-02-07T23:59:29.982Z,7.67
